ADDS TAF Data INFO
IDs: Format: Raw Decoded Include METARs

Data at: 1521 UTC 21 Jul 2017

KTEB 211451Z 33010KT 10SM CLR 29/20 A2990 RMK AO2 SLP125 T02940200 50001

KTEB 211356Z 2114/2212 31007KT P6SM FEW030
  FM211600 30008KT P6SM FEW040 FEW080
  TEMPO 2119/2121 28009G16KT
  FM212200 27009KT P6SM SCT050
  FM220400 32004KT P6SM FEW060


KEWR 211451Z 30007KT 10SM FEW040 FEW095 SCT250 31/20 A2991 RMK AO2 SLP129 T03060200 50002

KEWR 211356Z 2114/2218 31007KT P6SM FEW030
  FM211600 28008KT P6SM FEW040 FEW080
  FM211800 28011G17KT P6SM SCT050
  FM212200 27011KT P6SM SCT050
  FM220000 29011KT P6SM SCT050
  FM220400 31007KT P6SM FEW060
  FM220900 34004KT P6SM SKC
  FM221700 23005KT P6SM FEW040 FEW250


KMMU 211445Z 04006KT 10SM SCT033 29/21 A2993

No TAF found for KMMU

KABE 211451Z AUTO 32007KT 10SM CLR 29/21 A2996 RMK AO2 SLP140 T02940206 50002

KABE 211136Z 2112/2212 VRB03KT P6SM FEW060
  FM211500 27007KT P6SM SCT060
  FM220300 VRB03KT P6SM SCT150


KSWF 211445Z 29006KT 20SM SCT050 26/22 A2995

KSWF 211356Z 2114/2218 28009KT P6SM FEW030
  FM211600 30010KT P6SM FEW030
  TEMPO 2117/2121 30012G18KT
  FM220300 30004KT P6SM FEW040
  FM221600 26005KT P6SM FEW020 SCT200 AMD NOT SKED